Gahanna, Ohio
Current Conditions -  °F | °C
As of 7:51 AM on Thursday 30 Oct 2014 (Local Time) from KCMH Reporting Station
Scattered Clouds Scattered Clouds  
Wind Chill: 41°   Ceiling: Unl
Heat Index: 41°   Visibility: 10mi
Dew Point: 35°   Wind: 0mph
Humidity: 79%   Direction: NA
Pressure: 30.13"   Gusts: NA
Location:  40.01°N, 82.87°W
Report Text: KCMH 301151Z 00000KT 10SM SCT045 05/02 A3013 RMK AO2 SLP208 T00500017 10072 20044 51010
Loading
Personal Weather Stations






























Interactive Weather Map
Tropical Storm Tracking
New forecast layout! Learn more

10-Day Weather Forecast

Advertisements
Track Severe Weather on mobile